createdAt,value
2023-05-09T00:02:40.413Z,11.20
2023-05-09T00:05:29.777Z,10.37
2023-05-09T00:08:18.819Z,11.30
2023-05-09T00:11:07.570Z,10.40
2023-05-09T00:13:56.459Z,10.67
2023-05-09T00:16:46.869Z,10.73
2023-05-09T00:19:35.689Z,10.13
2023-05-09T00:22:24.374Z,9.87
2023-05-09T00:25:13.914Z,9.83
2023-05-09T00:28:02.835Z,9.70
2023-05-09T00:30:51.559Z,10.60
2023-05-09T00:33:41.757Z,10.60
2023-05-09T00:36:30.565Z,12.27
2023-05-09T00:39:19.297Z,11.60
2023-05-09T00:42:07.973Z,11.47
2023-05-09T00:44:56.613Z,11.20
2023-05-09T00:47:45.640Z,12.10
2023-05-09T00:50:35.868Z,11.83
2023-05-09T00:53:26.536Z,11.70
2023-05-09T00:56:16.660Z,9.90
2023-05-09T00:59:06.366Z,11.23
2023-05-09T01:01:56.258Z,11.40
2023-05-09T01:04:46.998Z,10.60
2023-05-09T01:07:47.085Z,13.80
2023-05-09T01:10:47.938Z,11.13
2023-05-09T01:13:50.489Z,11.87
2023-05-09T01:16:48.325Z,11.50
2023-05-09T01:19:58.452Z,13.80
2023-05-09T01:23:13.453Z,12.17
2023-05-09T01:26:06.180Z,14.20
2023-05-09T01:29:32.788Z,12.43
2023-05-09T01:32:27.035Z,13.73
2023-05-09T01:35:18.712Z,13.50
2023-05-09T01:38:14.464Z,13.27
2023-05-09T01:41:05.411Z,12.67
2023-05-09T01:43:57.938Z,13.23
2023-05-09T01:46:50.126Z,13.77
2023-05-09T01:49:42.449Z,12.97
2023-05-09T01:52:33.168Z,15.70
2023-05-09T01:55:26.490Z,15.07
2023-05-09T01:58:20.672Z,13.57
2023-05-09T02:01:11.051Z,13.50
2023-05-09T02:04:03.584Z,15.33
2023-05-09T02:06:53.255Z,15.10
2023-05-09T02:09:42.298Z,14.67
2023-05-09T02:12:33.920Z,13.50
2023-05-09T02:15:23.264Z,15.10
2023-05-09T02:18:12.899Z,15.30
2023-05-09T02:21:04.978Z,13.93
2023-05-09T02:23:54.560Z,14.47
2023-05-09T02:26:44.385Z,14.77
2023-05-09T02:29:40.439Z,14.37
2023-05-09T02:32:35.107Z,16.80
2023-05-09T02:35:27.168Z,15.47
2023-05-09T02:38:17.493Z,15.53
2023-05-09T02:41:07.042Z,15.07
2023-05-09T02:43:56.048Z,14.03
2023-05-09T02:46:44.932Z,15.73
2023-05-09T02:49:33.830Z,15.23
2023-05-09T02:52:24.635Z,14.43
2023-05-09T02:55:15.105Z,15.83
2023-05-09T02:58:13.579Z,15.23
2023-05-09T03:01:04.566Z,14.30
2023-05-09T03:03:53.555Z,14.90
2023-05-09T03:06:44.166Z,13.70
2023-05-09T03:09:35.076Z,14.27
2023-05-09T03:12:25.289Z,13.77
2023-05-09T03:15:16.906Z,14.73
2023-05-09T03:18:08.176Z,13.50
2023-05-09T03:20:57.154Z,14.73
2023-05-09T03:23:46.162Z,14.17
2023-05-09T03:26:36.427Z,13.60
2023-05-09T03:29:26.763Z,14.77
2023-05-09T03:32:16.506Z,15.50
2023-05-09T03:35:06.058Z,14.00
2023-05-09T03:37:55.100Z,13.63
2023-05-09T03:40:43.991Z,13.33
2023-05-09T03:43:34.120Z,13.40
2023-05-09T03:46:24.358Z,15.73
2023-05-09T03:49:13.502Z,13.83
2023-05-09T03:52:02.656Z,15.00
2023-05-09T03:54:51.828Z,14.30
2023-05-09T03:57:40.730Z,13.17
2023-05-09T04:00:29.579Z,13.60
2023-05-09T04:03:28.551Z,13.60
2023-05-09T04:06:17.455Z,14.27
2023-05-09T04:09:06.823Z,13.23
2023-05-09T04:11:55.638Z,13.77
2023-05-09T04:14:46.150Z,12.80
2023-05-09T04:17:36.879Z,13.50
2023-05-09T04:20:27.359Z,14.63
2023-05-09T04:23:16.803Z,13.20
2023-05-09T04:26:06.186Z,14.17
2023-05-09T04:28:55.445Z,13.70
2023-05-09T04:31:44.923Z,12.50
2023-05-09T04:34:35.555Z,13.53
2023-05-09T04:37:32.762Z,13.30
2023-05-09T04:40:25.498Z,12.33
2023-05-09T04:43:20.091Z,12.63
2023-05-09T04:46:09.273Z,13.00
2023-05-09T04:48:59.113Z,11.43
2023-05-09T04:51:48.373Z,12.80
2023-05-09T04:54:39.239Z,11.97
2023-05-09T04:57:28.654Z,10.63
2023-05-09T05:00:19.401Z,11.67
2023-05-09T05:03:09.786Z,11.70
2023-05-09T05:06:01.237Z,10.73
2023-05-09T05:08:50.057Z,11.40
2023-05-09T05:11:45.276Z,11.90
2023-05-09T05:14:42.329Z,12.43
2023-05-09T05:17:33.372Z,12.73
2023-05-09T05:20:24.829Z,11.23
2023-05-09T05:23:13.636Z,11.63
2023-05-09T05:26:02.367Z,11.67
2023-05-09T05:28:56.414Z,10.40
2023-05-09T05:31:46.501Z,11.67
2023-05-09T05:34:35.504Z,11.40
2023-05-09T05:37:24.553Z,12.70
2023-05-09T05:40:13.632Z,10.10
2023-05-09T05:43:06.254Z,8.63
2023-05-09T05:45:58.901Z,8.97
2023-05-09T05:48:49.760Z,8.13
2023-05-09T05:51:38.568Z,8.10
2023-05-09T05:54:31.417Z,7.13
2023-05-09T05:57:21.342Z,7.30
2023-05-09T06:00:11.967Z,7.03
2023-05-09T06:03:14.167Z,6.70
2023-05-09T06:06:08.399Z,6.90
2023-05-09T06:08:57.436Z,7.13
2023-05-09T06:11:46.377Z,6.97
2023-05-09T06:14:35.136Z,7.23
2023-05-09T06:17:24.326Z,8.20
2023-05-09T06:20:14.633Z,6.33
2023-05-09T06:23:03.637Z,7.33
2023-05-09T06:25:52.388Z,7.40
2023-05-09T06:28:41.594Z,5.63
2023-05-09T06:31:31.364Z,7.17
2023-05-09T06:34:20.242Z,5.77
2023-05-09T06:37:10.412Z,5.07
2023-05-09T06:39:59.347Z,6.20
2023-05-09T06:42:48.200Z,5.57
2023-05-09T06:45:37.752Z,6.30
2023-05-09T06:48:26.842Z,5.63
2023-05-09T06:51:16.379Z,5.50
2023-05-09T06:54:06.737Z,4.90
2023-05-09T06:56:55.928Z,4.90
2023-05-09T06:59:46.003Z,6.83
2023-05-09T07:02:34.916Z,5.67
2023-05-09T07:05:23.720Z,5.27
2023-05-09T07:08:12.533Z,5.60
2023-05-09T07:11:02.696Z,5.70
2023-05-09T07:13:51.538Z,5.70
2023-05-09T07:16:40.739Z,5.70
2023-05-09T07:19:29.513Z,5.40
2023-05-09T07:22:18.323Z,4.80
2023-05-09T07:25:10.205Z,5.27
2023-05-09T07:28:00.461Z,5.93
2023-05-09T07:30:49.260Z,6.37
2023-05-09T07:33:38.137Z,5.60
2023-05-09T07:36:27.238Z,5.13
2023-05-09T07:39:16.782Z,6.00
2023-05-09T07:42:05.800Z,6.33
2023-05-09T07:44:56.338Z,5.87
2023-05-09T07:47:45.475Z,5.27
2023-05-09T07:50:34.797Z,5.90
2023-05-09T07:53:23.560Z,5.50
2023-05-09T07:56:13.397Z,5.23
2023-05-09T07:59:03.317Z,5.67
2023-05-09T08:01:53.566Z,4.73
2023-05-09T08:04:42.417Z,6.13
2023-05-09T08:07:33.772Z,6.73
2023-05-09T08:10:23.555Z,5.97
2023-05-09T08:13:12.555Z,5.90
2023-05-09T08:16:02.890Z,4.70
2023-05-09T08:18:53.516Z,5.10
2023-05-09T08:21:42.341Z,4.20
2023-05-09T08:24:31.890Z,4.37
2023-05-09T08:27:20.736Z,4.30
2023-05-09T08:30:11.027Z,4.90
2023-05-09T08:33:00.203Z,6.10
2023-05-09T08:35:53.694Z,5.43
2023-05-09T08:38:42.492Z,5.67
2023-05-09T08:41:36.102Z,4.70
2023-05-09T08:44:25.264Z,4.60
2023-05-09T08:47:15.097Z,4.87
2023-05-09T08:50:04.471Z,4.83
2023-05-09T08:52:55.684Z,4.77
2023-05-09T08:55:44.845Z,3.73
2023-05-09T08:58:35.389Z,4.60
2023-05-09T09:01:27.791Z,5.43
2023-05-09T09:04:16.757Z,4.20
2023-05-09T09:07:08.866Z,4.17
2023-05-09T09:10:00.691Z,4.87
2023-05-09T09:12:50.451Z,5.80
2023-05-09T09:15:41.648Z,4.93
2023-05-09T09:18:35.987Z,4.87
2023-05-09T09:21:25.175Z,5.03
2023-05-09T09:24:15.542Z,4.00
2023-05-09T09:27:08.825Z,4.37
2023-05-09T09:30:26.808Z,31.30
2023-05-09T09:33:22.673Z,4.70
2023-05-09T09:36:11.460Z,4.17
2023-05-09T09:39:01.817Z,5.20
2023-05-09T09:41:50.895Z,3.70
2023-05-09T09:44:41.128Z,4.20
2023-05-09T09:47:33.679Z,4.93
2023-05-09T09:50:25.359Z,4.80
2023-05-09T09:53:14.372Z,4.37
2023-05-09T09:56:03.221Z,4.97
2023-05-09T09:58:51.920Z,4.80
2023-05-09T10:02:06.679Z,3.27
2023-05-09T10:04:56.590Z,3.83
2023-05-09T10:07:45.407Z,3.40
2023-05-09T10:10:37.153Z,3.70
2023-05-09T10:13:27.489Z,3.43
2023-05-09T10:16:17.102Z,3.70
2023-05-09T10:19:08.698Z,3.47
2023-05-09T10:22:00.200Z,4.20
2023-05-09T10:24:57.832Z,3.27
2023-05-09T10:27:52.660Z,4.23
2023-05-09T10:30:59.700Z,3.57
2023-05-09T10:33:50.780Z,2.73
2023-05-09T10:36:41.849Z,3.30
2023-05-09T10:39:32.680Z,3.40
2023-05-09T10:42:25.353Z,3.00
2023-05-09T10:45:14.626Z,3.67
2023-05-09T10:48:09.054Z,3.13
2023-05-09T10:50:58.485Z,2.83
2023-05-09T10:53:51.188Z,3.13
2023-05-09T10:56:39.969Z,3.57
2023-05-09T10:59:38.353Z,3.47
2023-05-09T11:02:29.540Z,3.17
2023-05-09T11:05:20.904Z,3.20
2023-05-09T11:08:30.516Z,3.73
2023-05-09T11:11:25.787Z,3.70
2023-05-09T11:14:33.830Z,3.40
2023-05-09T11:17:32.662Z,3.20
2023-05-09T11:20:29.965Z,4.00
2023-05-09T11:23:20.318Z,4.10
2023-05-09T11:26:10.492Z,3.53
2023-05-09T11:29:02.761Z,2.80
2023-05-09T11:32:09.091Z,3.43
2023-05-09T11:35:09.501Z,3.50
2023-05-09T11:38:02.931Z,3.37
2023-05-09T11:40:56.182Z,3.20
2023-05-09T11:43:45.656Z,3.43
2023-05-09T11:46:35.917Z,4.47
2023-05-09T11:49:27.645Z,4.20
2023-05-09T11:52:16.490Z,4.10
2023-05-09T11:55:10.908Z,3.50
2023-05-09T11:58:01.300Z,3.30
2023-05-09T12:00:50.637Z,3.80
2023-05-09T12:03:45.456Z,4.47
2023-05-09T12:06:34.519Z,2.87
2023-05-09T12:09:23.472Z,2.80
2023-05-09T12:12:13.557Z,3.00
2023-05-09T12:15:05.709Z,3.30
2023-05-09T12:18:07.933Z,4.03
2023-05-09T12:21:00.894Z,3.40
2023-05-09T12:23:51.740Z,3.07
2023-05-09T12:26:42.230Z,2.70
2023-05-09T12:29:31.640Z,3.10
2023-05-09T12:32:20.671Z,3.30
2023-05-09T12:35:11.518Z,3.57
2023-05-09T12:38:01.927Z,3.00
2023-05-09T12:41:03.677Z,3.30
2023-05-09T12:43:53.024Z,3.30
2023-05-09T12:46:42.058Z,3.73
2023-05-09T12:49:32.833Z,3.70
2023-05-09T12:52:22.068Z,3.00
2023-05-09T12:55:15.627Z,3.40
2023-05-09T12:58:05.023Z,3.83
2023-05-09T13:00:56.226Z,3.33
2023-05-09T13:03:45.036Z,4.33
2023-05-09T13:06:37.928Z,4.63
2023-05-09T13:09:28.492Z,3.70
2023-05-09T13:12:21.340Z,3.90
2023-05-09T13:15:12.125Z,4.00
2023-05-09T13:18:01.199Z,3.27
2023-05-09T13:20:49.919Z,3.30
2023-05-09T13:23:38.852Z,3.50
2023-05-09T13:26:28.220Z,4.77
2023-05-09T13:29:18.394Z,6.30
2023-05-09T13:32:07.367Z,5.83
2023-05-09T13:34:56.172Z,4.83
2023-05-09T13:37:44.950Z,5.23
2023-05-09T13:40:33.869Z,5.60
2023-05-09T13:43:22.630Z,5.00
2023-05-09T13:46:12.900Z,5.17
2023-05-09T13:49:01.973Z,5.37
2023-05-09T13:51:50.890Z,5.60
2023-05-09T13:54:39.871Z,4.97
2023-05-09T13:57:28.769Z,4.90
2023-05-09T14:00:18.108Z,4.70
2023-05-09T14:03:08.418Z,5.17
2023-05-09T14:05:57.260Z,5.13
2023-05-09T14:08:46.006Z,5.13
2023-05-09T14:11:34.800Z,4.23
2023-05-09T14:14:25.834Z,5.10
2023-05-09T14:17:14.529Z,4.53
2023-05-09T14:20:05.074Z,5.00
2023-05-09T14:22:55.056Z,5.80
2023-05-09T14:25:43.862Z,3.57
2023-05-09T14:28:36.171Z,4.27
2023-05-09T14:31:25.337Z,4.00
2023-05-09T14:34:14.161Z,3.93
2023-05-09T14:37:07.010Z,3.50
2023-05-09T14:39:55.865Z,3.47
2023-05-09T14:42:44.830Z,3.30
2023-05-09T14:45:34.369Z,3.67
2023-05-09T14:48:23.328Z,3.33
2023-05-09T14:51:12.238Z,4.30
2023-05-09T14:54:04.373Z,3.87
2023-05-09T14:56:53.403Z,4.00
2023-05-09T14:59:42.260Z,3.43
2023-05-09T15:02:31.009Z,3.10
2023-05-09T15:05:22.436Z,3.70
2023-05-09T15:08:11.138Z,3.80
2023-05-09T15:11:01.592Z,3.03
2023-05-09T15:13:51.565Z,2.63
2023-05-09T15:16:40.350Z,3.00
2023-05-09T15:19:31.445Z,2.90
2023-05-09T15:22:20.109Z,2.60
2023-05-09T15:25:10.115Z,3.17
2023-05-09T15:28:00.523Z,3.37
2023-05-09T15:30:49.374Z,4.73
2023-05-09T15:33:40.782Z,3.10
2023-05-09T15:36:30.487Z,4.30
2023-05-09T15:39:19.554Z,6.00
2023-05-09T15:42:08.958Z,3.97
2023-05-09T15:44:59.000Z,3.70
2023-05-09T15:47:48.310Z,3.20
2023-05-09T15:50:37.737Z,4.00
2023-05-09T15:53:27.610Z,3.77
2023-05-09T15:56:16.700Z,3.30
2023-05-09T15:59:05.555Z,3.03
2023-05-09T16:01:57.793Z,3.70
2023-05-09T16:04:46.587Z,2.90
2023-05-09T16:07:35.962Z,3.20
2023-05-09T16:10:24.924Z,3.43
2023-05-09T16:13:13.966Z,3.90
2023-05-09T16:16:03.329Z,3.50
2023-05-09T16:18:53.613Z,3.80
2023-05-09T16:21:42.458Z,4.07
2023-05-09T16:24:31.838Z,3.00
2023-05-09T16:27:21.583Z,3.37
2023-05-09T16:30:12.095Z,3.50
2023-05-09T16:33:00.900Z,4.33
2023-05-09T16:35:51.381Z,4.33
2023-05-09T16:38:40.362Z,3.73
2023-05-09T16:41:29.055Z,3.00
2023-05-09T16:44:18.024Z,3.17
2023-05-09T16:47:06.917Z,3.63
2023-05-09T16:49:55.719Z,4.50
2023-05-09T16:52:45.865Z,3.90
2023-05-09T16:55:34.622Z,4.07
2023-05-09T16:58:23.481Z,4.03
2023-05-09T17:01:12.508Z,3.67
2023-05-09T17:04:01.715Z,3.83
2023-05-09T17:06:51.737Z,4.20
2023-05-09T17:09:41.863Z,3.10
2023-05-09T17:12:30.723Z,3.27
2023-05-09T17:15:19.879Z,3.47
2023-05-09T17:18:08.709Z,3.90
2023-05-09T17:20:57.775Z,3.50
2023-05-09T17:23:46.597Z,4.00
2023-05-09T17:26:36.704Z,3.37
2023-05-09T17:29:26.544Z,13.03
2023-05-09T17:32:16.176Z,30.17
2023-05-09T17:35:06.017Z,10.67
2023-05-09T17:37:54.745Z,5.13
2023-05-09T17:40:44.248Z,3.83
2023-05-09T17:43:39.300Z,3.90
2023-05-09T17:46:28.099Z,4.10
2023-05-09T17:49:17.015Z,3.67
2023-05-09T17:52:06.096Z,4.40
2023-05-09T17:54:54.832Z,3.47
2023-05-09T17:57:43.846Z,3.77
2023-05-09T18:00:34.035Z,4.10
2023-05-09T18:03:23.016Z,3.60
2023-05-09T18:06:12.000Z,3.97
2023-05-09T18:09:03.382Z,3.83
2023-05-09T18:11:52.175Z,3.10
2023-05-09T18:14:41.180Z,4.07
2023-05-09T18:17:31.402Z,4.23
2023-05-09T18:20:20.450Z,7.03
2023-05-09T18:23:09.245Z,4.00
2023-05-09T18:25:59.200Z,4.10
2023-05-09T18:28:48.695Z,4.73
2023-05-09T18:31:39.769Z,5.37
2023-05-09T18:34:30.358Z,4.60
2023-05-09T18:37:19.293Z,5.30
2023-05-09T18:40:14.732Z,4.23
2023-05-09T18:43:03.732Z,4.90
2023-05-09T18:45:53.490Z,4.00
2023-05-09T18:48:42.689Z,5.70
2023-05-09T18:51:33.945Z,4.20
2023-05-09T18:54:22.679Z,5.30
2023-05-09T18:57:11.751Z,4.77
2023-05-09T19:00:00.695Z,8.63
2023-05-09T19:02:51.413Z,4.33
2023-05-09T19:05:40.321Z,4.10
2023-05-09T19:08:31.306Z,5.67
2023-05-09T19:11:20.212Z,4.70
2023-05-09T19:14:09.016Z,5.07
2023-05-09T19:16:57.923Z,4.10
2023-05-09T19:19:46.808Z,5.70
2023-05-09T19:22:36.530Z,4.87
2023-05-09T19:25:27.629Z,4.10
2023-05-09T19:28:18.933Z,3.50
2023-05-09T19:31:08.144Z,4.40
2023-05-09T19:33:56.906Z,3.90
2023-05-09T19:36:45.713Z,4.47
2023-05-09T19:39:34.436Z,4.30
2023-05-09T19:42:24.695Z,6.70
2023-05-09T19:45:13.968Z,5.13
2023-05-09T19:48:03.275Z,5.27
2023-05-09T19:50:58.711Z,8.43
2023-05-09T19:53:47.835Z,5.43
2023-05-09T19:56:36.614Z,5.90
2023-05-09T19:59:26.865Z,4.00
2023-05-09T20:02:15.577Z,4.80
2023-05-09T20:05:04.597Z,3.63
2023-05-09T20:07:53.922Z,4.20
2023-05-09T20:10:42.712Z,5.27
2023-05-09T20:13:31.472Z,4.30
2023-05-09T20:16:22.359Z,4.73
2023-05-09T20:19:14.322Z,4.33
2023-05-09T20:22:04.013Z,4.33
2023-05-09T20:24:52.895Z,3.87
2023-05-09T20:27:41.949Z,4.70
2023-05-09T20:30:32.316Z,3.83
2023-05-09T20:33:22.723Z,4.90
2023-05-09T20:36:11.740Z,4.90
2023-05-09T20:39:00.516Z,4.23
2023-05-09T20:41:51.290Z,4.20
2023-05-09T20:44:42.106Z,4.17
2023-05-09T20:47:31.234Z,4.57
2023-05-09T20:50:21.481Z,4.60
2023-05-09T20:53:10.201Z,4.73
2023-05-09T20:56:00.281Z,3.97
2023-05-09T20:58:48.932Z,4.63
2023-05-09T21:01:40.299Z,4.10
2023-05-09T21:04:29.111Z,4.40
2023-05-09T21:07:19.694Z,4.50
2023-05-09T21:10:11.609Z,5.00
2023-05-09T21:13:00.620Z,5.20
2023-05-09T21:15:50.762Z,4.43
2023-05-09T21:18:39.579Z,5.20
2023-05-09T21:21:28.368Z,4.70
2023-05-09T21:24:18.412Z,4.90
2023-05-09T21:27:07.141Z,3.90
2023-05-09T21:29:55.879Z,3.90
2023-05-09T21:32:44.689Z,4.80
2023-05-09T21:35:33.401Z,3.70
2023-05-09T21:38:22.167Z,4.70
2023-05-09T21:41:12.328Z,4.20
2023-05-09T21:44:00.981Z,4.40
2023-05-09T21:46:49.772Z,4.00
2023-05-09T21:49:38.757Z,4.07
2023-05-09T21:52:27.579Z,4.10
2023-05-09T21:55:17.133Z,3.93
2023-05-09T21:58:07.258Z,4.60
2023-05-09T22:00:56.124Z,3.80
2023-05-09T22:03:45.006Z,3.50
2023-05-09T22:06:34.234Z,3.57
2023-05-09T22:09:23.808Z,3.17
2023-05-09T22:12:12.517Z,3.73
2023-05-09T22:15:03.029Z,2.93
2023-05-09T22:17:51.849Z,3.40
2023-05-09T22:20:40.651Z,3.07
2023-05-09T22:23:29.398Z,3.30
2023-05-09T22:26:18.120Z,2.70
2023-05-09T22:29:06.918Z,3.10
2023-05-09T22:31:57.176Z,3.30
2023-05-09T22:34:48.536Z,3.07
2023-05-09T22:37:37.485Z,2.87
2023-05-09T22:40:26.808Z,3.77
2023-05-09T22:43:15.570Z,3.43
2023-05-09T22:46:04.412Z,3.40
2023-05-09T22:48:54.650Z,3.40
2023-05-09T22:51:43.502Z,3.97
2023-05-09T22:54:32.223Z,3.53
2023-05-09T22:57:23.595Z,3.20
2023-05-09T23:00:14.150Z,3.30
2023-05-09T23:03:04.527Z,3.33
2023-05-09T23:05:54.674Z,3.17
2023-05-09T23:08:43.470Z,3.37
2023-05-09T23:11:32.274Z,3.30
2023-05-09T23:14:21.051Z,3.00
2023-05-09T23:17:09.838Z,3.40
2023-05-09T23:20:00.565Z,3.27
2023-05-09T23:22:51.013Z,3.10
2023-05-09T23:25:39.989Z,3.33
2023-05-09T23:28:28.764Z,3.10
2023-05-09T23:31:17.742Z,3.60
2023-05-09T23:34:06.592Z,3.37
2023-05-09T23:36:55.460Z,3.90
2023-05-09T23:39:45.832Z,4.57
2023-05-09T23:42:37.235Z,3.90
2023-05-09T23:45:26.411Z,3.53
2023-05-09T23:48:15.197Z,3.50
2023-05-09T23:51:04.051Z,3.20
2023-05-09T23:53:53.973Z,3.70
2023-05-09T23:56:44.012Z,3.33
2023-05-09T23:59:32.964Z,3.37
